createdAt,value
2023-05-20T00:00:20.586Z,23.82
2023-05-20T00:01:20.589Z,23.82
2023-05-20T00:02:20.635Z,23.82
2023-05-20T00:03:20.818Z,23.82
2023-05-20T00:04:20.775Z,23.82
2023-05-20T00:05:20.694Z,23.82
2023-05-20T00:06:20.692Z,23.81
2023-05-20T00:07:20.680Z,23.81
2023-05-20T00:08:20.692Z,23.82
2023-05-20T00:09:20.660Z,23.82
2023-05-20T00:10:20.681Z,23.81
2023-05-20T00:11:20.667Z,23.80
2023-05-20T00:12:20.677Z,23.81
2023-05-20T00:13:20.730Z,23.81
2023-05-20T00:14:20.758Z,23.81
2023-05-20T00:15:20.781Z,23.80
2023-05-20T00:16:20.832Z,23.80
2023-05-20T00:17:20.866Z,23.81
2023-05-20T00:18:20.920Z,23.81
2023-05-20T00:19:21.091Z,23.81
2023-05-20T00:20:20.988Z,23.80
2023-05-20T00:21:21.037Z,23.80
2023-05-20T00:22:21.082Z,23.80
2023-05-20T00:23:21.139Z,23.79
2023-05-20T00:24:21.153Z,23.79
2023-05-20T00:25:21.188Z,23.79
2023-05-20T00:26:21.243Z,23.80
2023-05-20T00:27:21.274Z,23.80
2023-05-20T00:28:21.343Z,23.80
2023-05-20T00:29:21.358Z,23.80
2023-05-20T00:30:21.413Z,23.80
2023-05-20T00:31:21.421Z,23.80
2023-05-20T00:32:21.510Z,23.80
2023-05-20T00:33:21.446Z,23.80
2023-05-20T00:34:21.466Z,23.80
2023-05-20T00:35:21.446Z,23.79
2023-05-20T00:36:21.452Z,23.79
2023-05-20T00:37:21.442Z,23.80
2023-05-20T00:38:21.428Z,23.79
2023-05-20T00:39:21.412Z,23.79
2023-05-20T00:40:21.413Z,23.79
2023-05-20T00:41:21.434Z,23.79
2023-05-20T00:42:21.458Z,23.79
2023-05-20T00:43:21.488Z,23.78
2023-05-20T00:44:21.512Z,23.78
2023-05-20T00:45:21.567Z,23.78
2023-05-20T00:46:21.649Z,23.79
2023-05-20T00:47:21.654Z,23.78
2023-05-20T00:48:21.669Z,23.78
2023-05-20T00:49:21.647Z,23.78
2023-05-20T00:50:21.636Z,23.78
2023-05-20T00:51:21.662Z,23.78
2023-05-20T00:52:21.641Z,23.78
2023-05-20T00:53:21.660Z,23.78
2023-05-20T00:54:21.646Z,23.78
2023-05-20T00:55:21.622Z,23.77
2023-05-20T00:56:21.640Z,23.78
2023-05-20T00:57:21.622Z,23.78
2023-05-20T00:58:21.644Z,23.78
2023-05-20T00:59:21.632Z,23.77
2023-05-20T01:00:21.620Z,23.78
2023-05-20T01:01:21.662Z,23.78
2023-05-20T01:02:21.837Z,23.77
2023-05-20T01:03:21.937Z,23.78
2023-05-20T01:04:21.760Z,23.77
2023-05-20T01:05:21.804Z,23.78
2023-05-20T01:06:21.851Z,23.77
2023-05-20T01:07:21.879Z,23.77
2023-05-20T01:08:21.915Z,23.77
2023-05-20T01:09:21.982Z,23.77
2023-05-20T01:10:22.037Z,23.77
2023-05-20T01:11:22.081Z,23.75
2023-05-20T01:12:22.110Z,23.77
2023-05-20T01:13:22.155Z,23.76
2023-05-20T01:14:22.170Z,23.76
2023-05-20T01:15:22.247Z,23.77
2023-05-20T01:16:22.320Z,23.76
2023-05-20T01:17:22.341Z,23.75
2023-05-20T01:18:22.349Z,23.75
2023-05-20T01:19:22.502Z,23.75
2023-05-20T01:20:22.454Z,23.74
2023-05-20T01:21:22.497Z,23.75
2023-05-20T01:22:22.548Z,23.75
2023-05-20T01:23:22.596Z,23.75
2023-05-20T01:24:22.618Z,23.75
2023-05-20T01:25:22.610Z,23.75
2023-05-20T01:26:22.610Z,23.75
2023-05-20T01:27:22.603Z,23.75
2023-05-20T01:28:22.619Z,23.75
2023-05-20T01:29:22.616Z,23.75
2023-05-20T01:30:22.651Z,23.75
2023-05-20T01:31:22.589Z,23.74
2023-05-20T01:32:22.663Z,23.74
2023-05-20T01:33:22.749Z,23.74
2023-05-20T01:34:22.760Z,23.75
2023-05-20T01:35:22.825Z,23.75
2023-05-20T01:36:22.833Z,23.74
2023-05-20T01:37:22.892Z,23.74
2023-05-20T01:38:22.915Z,23.74
2023-05-20T01:39:22.983Z,23.74
2023-05-20T01:40:22.988Z,23.74
2023-05-20T01:41:23.034Z,23.74
2023-05-20T01:42:23.096Z,23.74
2023-05-20T01:43:23.145Z,23.73
2023-05-20T01:44:23.121Z,23.74
2023-05-20T01:45:23.144Z,23.74
2023-05-20T01:46:23.288Z,23.74
2023-05-20T01:47:23.160Z,23.73
2023-05-20T01:48:23.165Z,23.73
2023-05-20T01:49:23.149Z,23.73
2023-05-20T01:50:23.157Z,23.74
2023-05-20T01:51:23.161Z,23.73
2023-05-20T01:52:23.181Z,23.74
2023-05-20T01:53:23.147Z,23.74
2023-05-20T01:54:23.214Z,23.74
2023-05-20T01:55:23.271Z,23.74
2023-05-20T01:56:23.308Z,23.74
2023-05-20T01:57:23.341Z,23.73
2023-05-20T01:58:23.409Z,23.74
2023-05-20T01:59:23.437Z,23.74
2023-05-20T02:00:23.485Z,23.74
2023-05-20T02:01:23.561Z,23.75
2023-05-20T02:02:23.664Z,23.74
2023-05-20T02:03:23.671Z,23.74
2023-05-20T02:04:23.682Z,23.74
2023-05-20T02:05:23.718Z,23.74
2023-05-20T02:06:23.728Z,23.74
2023-05-20T02:07:23.777Z,23.73
2023-05-20T02:08:23.866Z,23.74
2023-05-20T02:09:23.874Z,23.73
2023-05-20T02:10:23.942Z,23.73
2023-05-20T02:11:23.976Z,23.72
2023-05-20T02:12:24.015Z,23.72
2023-05-20T02:13:24.086Z,23.72
2023-05-20T02:14:24.117Z,23.72
2023-05-20T02:15:24.160Z,23.71
2023-05-20T02:16:24.225Z,23.71
2023-05-20T02:17:24.237Z,23.72
2023-05-20T02:18:24.260Z,23.71
2023-05-20T02:19:24.293Z,23.72
2023-05-20T02:20:24.285Z,23.72
2023-05-20T02:21:24.266Z,23.71
2023-05-20T02:22:24.264Z,23.71
2023-05-20T02:23:24.290Z,23.71
2023-05-20T02:24:24.290Z,23.71
2023-05-20T02:25:24.372Z,23.72
2023-05-20T02:26:24.419Z,23.71
2023-05-20T02:27:24.456Z,23.71
2023-05-20T02:28:24.527Z,23.71
2023-05-20T02:29:24.552Z,23.71
2023-05-20T02:30:24.617Z,23.70
2023-05-20T02:31:24.663Z,23.71
2023-05-20T02:32:24.699Z,23.71
2023-05-20T02:33:24.740Z,23.71
2023-05-20T02:34:25.003Z,23.71
2023-05-20T02:35:24.889Z,23.71
2023-05-20T02:36:24.893Z,23.72
2023-05-20T02:37:24.936Z,23.72
2023-05-20T02:38:25.018Z,23.72
2023-05-20T02:39:25.030Z,23.71
2023-05-20T02:40:25.082Z,23.71
2023-05-20T02:41:25.130Z,23.71
2023-05-20T02:42:25.197Z,23.71
2023-05-20T02:43:25.248Z,23.71
2023-05-20T02:44:25.294Z,23.71
2023-05-20T02:45:25.319Z,23.71
2023-05-20T02:46:25.401Z,23.71
2023-05-20T02:47:25.452Z,23.71
2023-05-20T02:48:25.469Z,23.71
2023-05-20T02:49:25.512Z,23.71
2023-05-20T02:50:25.551Z,23.72
2023-05-20T02:51:25.659Z,23.72
2023-05-20T02:52:25.656Z,23.71
2023-05-20T02:53:25.711Z,23.71
2023-05-20T02:54:25.777Z,23.71
2023-05-20T02:55:25.806Z,23.72
2023-05-20T02:56:25.857Z,23.71
2023-05-20T02:57:25.876Z,23.71
2023-05-20T02:58:25.960Z,23.70
2023-05-20T02:59:25.995Z,23.70
2023-05-20T03:00:26.072Z,23.70
2023-05-20T03:01:26.095Z,23.70
2023-05-20T03:02:26.146Z,23.70
2023-05-20T03:03:26.195Z,23.70
2023-05-20T03:04:26.331Z,23.70
2023-05-20T03:05:26.296Z,23.70
2023-05-20T03:06:26.350Z,23.70
2023-05-20T03:07:26.385Z,23.70
2023-05-20T03:08:26.421Z,23.71
2023-05-20T03:09:26.470Z,23.71
2023-05-20T03:10:26.521Z,23.71
2023-05-20T03:11:26.580Z,23.70
2023-05-20T03:12:26.614Z,23.71
2023-05-20T03:13:26.685Z,23.71
2023-05-20T03:14:26.721Z,23.70
2023-05-20T03:15:26.813Z,23.71
2023-05-20T03:16:26.865Z,23.70
2023-05-20T03:17:26.869Z,23.70
2023-05-20T03:18:26.930Z,23.70
2023-05-20T03:19:27.067Z,23.70
2023-05-20T03:20:26.984Z,23.70
2023-05-20T03:21:27.110Z,23.71
2023-05-20T03:22:27.093Z,23.70
2023-05-20T03:23:27.154Z,23.71
2023-05-20T03:24:27.190Z,23.70
2023-05-20T03:25:27.237Z,23.70
2023-05-20T03:26:27.288Z,23.70
2023-05-20T03:27:27.310Z,23.70
2023-05-20T03:28:27.360Z,23.70
2023-05-20T03:29:27.426Z,23.70
2023-05-20T03:30:27.479Z,23.70
2023-05-20T03:31:27.654Z,23.70
2023-05-20T03:32:27.574Z,23.71
2023-05-20T03:33:27.641Z,23.70
2023-05-20T03:34:27.670Z,23.70
2023-05-20T03:35:27.710Z,23.70
2023-05-20T03:36:27.778Z,23.71
2023-05-20T03:37:27.802Z,23.70
2023-05-20T03:38:27.853Z,23.70
2023-05-20T03:39:27.914Z,23.70
2023-05-20T03:40:27.934Z,23.70
2023-05-20T03:41:27.981Z,23.70
2023-05-20T03:42:28.013Z,23.70
2023-05-20T03:43:28.072Z,23.70
2023-05-20T03:44:28.141Z,23.70
2023-05-20T03:45:28.191Z,23.68
2023-05-20T03:46:28.265Z,23.68
2023-05-20T03:47:28.269Z,23.66
2023-05-20T03:48:28.331Z,23.66
2023-05-20T03:49:28.391Z,23.66
2023-05-20T03:50:28.437Z,23.65
2023-05-20T03:51:28.464Z,23.65
2023-05-20T03:52:28.515Z,23.65
2023-05-20T03:53:28.589Z,23.65
2023-05-20T03:54:28.609Z,23.65
2023-05-20T03:55:28.669Z,23.66
2023-05-20T03:56:28.739Z,23.65
2023-05-20T03:57:28.771Z,23.66
2023-05-20T03:58:28.839Z,23.66
2023-05-20T03:59:28.892Z,23.66
2023-05-20T04:00:28.939Z,23.66
2023-05-20T04:01:28.999Z,23.66
2023-05-20T04:02:29.130Z,23.66
2023-05-20T04:03:29.211Z,23.66
2023-05-20T04:04:29.145Z,23.67
2023-05-20T04:05:29.226Z,23.67
2023-05-20T04:06:29.226Z,23.67
2023-05-20T04:07:29.308Z,23.66
2023-05-20T04:08:29.327Z,23.67
2023-05-20T04:09:29.351Z,23.67
2023-05-20T04:10:29.416Z,23.67
2023-05-20T04:11:29.494Z,23.67
2023-05-20T04:12:29.517Z,23.67
2023-05-20T04:13:29.654Z,23.67
2023-05-20T04:14:29.706Z,23.68
2023-05-20T04:15:29.680Z,23.67
2023-05-20T04:16:29.778Z,23.67
2023-05-20T04:17:29.778Z,23.68
2023-05-20T04:18:29.813Z,23.66
2023-05-20T04:19:29.885Z,23.67
2023-05-20T04:20:29.941Z,23.67
2023-05-20T04:21:29.966Z,23.69
2023-05-20T04:22:30.005Z,23.68
2023-05-20T04:23:30.043Z,23.68
2023-05-20T04:24:30.086Z,23.69
2023-05-20T04:25:30.111Z,23.69
2023-05-20T04:26:30.047Z,23.69
2023-05-20T04:27:30.084Z,23.69
2023-05-20T04:28:30.059Z,23.69
2023-05-20T04:29:30.061Z,23.69
2023-05-20T04:30:30.068Z,23.69
2023-05-20T04:31:30.078Z,23.69
2023-05-20T04:32:30.148Z,23.70
2023-05-20T04:33:30.078Z,23.69
2023-05-20T04:34:30.093Z,23.69
2023-05-20T04:35:30.071Z,23.70
2023-05-20T04:36:30.087Z,23.70
2023-05-20T04:37:30.068Z,23.70
2023-05-20T04:38:30.383Z,23.70
2023-05-20T04:39:30.169Z,23.70
2023-05-20T04:40:30.254Z,23.70
2023-05-20T04:41:30.273Z,23.70
2023-05-20T04:42:30.293Z,23.70
2023-05-20T04:43:30.403Z,23.70
2023-05-20T04:44:30.408Z,23.71
2023-05-20T04:45:30.507Z,23.71
2023-05-20T04:46:30.676Z,23.70
2023-05-20T04:47:30.549Z,23.70
2023-05-20T04:48:30.558Z,23.70
2023-05-20T04:49:30.607Z,23.71
2023-05-20T04:50:30.645Z,23.71
2023-05-20T04:51:30.685Z,23.71
2023-05-20T04:52:30.743Z,23.71
2023-05-20T04:53:30.791Z,23.71
2023-05-20T04:54:30.830Z,23.72
2023-05-20T04:55:30.899Z,23.71
2023-05-20T04:56:30.922Z,23.72
2023-05-20T04:57:30.977Z,23.71
2023-05-20T04:58:31.009Z,23.72
2023-05-20T04:59:31.040Z,23.71
2023-05-20T05:00:31.139Z,23.72
2023-05-20T05:01:31.180Z,23.71
2023-05-20T05:02:31.220Z,23.71
2023-05-20T05:03:31.454Z,23.71
2023-05-20T05:04:31.314Z,23.72
2023-05-20T05:05:31.388Z,23.72
2023-05-20T05:06:31.331Z,23.71
2023-05-20T05:07:31.317Z,23.71
2023-05-20T05:08:31.313Z,23.72
2023-05-20T05:09:33.120Z,23.71
2023-05-20T05:10:31.338Z,23.72
2023-05-20T05:11:31.419Z,23.72
2023-05-20T05:12:31.289Z,23.71
2023-05-20T05:13:31.295Z,23.72
2023-05-20T05:14:31.298Z,23.73
2023-05-20T05:15:31.350Z,23.72
2023-05-20T05:16:31.298Z,23.72
2023-05-20T05:17:31.295Z,23.73
2023-05-20T05:18:31.235Z,23.73
2023-05-20T05:19:31.241Z,23.73
2023-05-20T05:20:31.241Z,23.73
2023-05-20T05:21:31.248Z,23.73
2023-05-20T05:22:31.232Z,23.73
2023-05-20T05:23:31.252Z,23.74
2023-05-20T05:24:31.215Z,23.74
2023-05-20T05:25:31.381Z,23.75
2023-05-20T05:26:31.205Z,23.75
2023-05-20T05:27:31.217Z,23.75
2023-05-20T05:28:31.224Z,23.75
2023-05-20T05:29:31.187Z,23.76
2023-05-20T05:30:31.178Z,23.76
2023-05-20T05:31:31.188Z,23.76
2023-05-20T05:32:31.242Z,23.76
2023-05-20T05:33:31.184Z,23.76
2023-05-20T05:34:31.164Z,23.77
2023-05-20T05:35:31.281Z,23.77
2023-05-20T05:36:31.152Z,23.77
2023-05-20T05:37:31.130Z,23.77
2023-05-20T05:38:31.146Z,23.77
2023-05-20T05:39:31.100Z,23.78
2023-05-20T05:40:31.152Z,23.77
2023-05-20T05:41:31.096Z,23.78
2023-05-20T05:42:31.078Z,23.78
2023-05-20T05:43:31.069Z,23.79
2023-05-20T05:44:31.068Z,23.79
2023-05-20T05:45:31.233Z,23.79
2023-05-20T05:46:31.122Z,23.79
2023-05-20T05:47:31.115Z,23.79
2023-05-20T05:48:31.045Z,23.80
2023-05-20T05:49:31.058Z,23.80
2023-05-20T05:50:31.059Z,23.81
2023-05-20T05:51:31.023Z,23.80
2023-05-20T05:52:31.029Z,23.80
2023-05-20T05:53:31.021Z,23.81
2023-05-20T05:54:30.991Z,23.82
2023-05-20T05:55:31.058Z,23.81
2023-05-20T05:56:31.023Z,23.81
2023-05-20T05:57:30.974Z,23.82
2023-05-20T05:58:30.982Z,23.81
2023-05-20T05:59:30.948Z,23.82
2023-05-20T06:00:30.944Z,23.84
2023-05-20T06:01:30.948Z,23.83
2023-05-20T06:02:31.044Z,23.83
2023-05-20T06:03:31.055Z,23.82
2023-05-20T06:04:31.096Z,23.82
2023-05-20T06:05:31.125Z,23.83
2023-05-20T06:06:31.129Z,23.82
2023-05-20T06:07:31.155Z,23.83
2023-05-20T06:08:31.201Z,23.82
2023-05-20T06:09:31.224Z,23.82
2023-05-20T06:10:31.253Z,23.83
2023-05-20T06:11:31.312Z,23.83
2023-05-20T06:12:31.345Z,23.83
2023-05-20T06:13:31.395Z,23.83
2023-05-20T06:14:31.418Z,23.83
2023-05-20T06:15:31.469Z,23.84
2023-05-20T06:16:31.568Z,23.83
2023-05-20T06:17:31.562Z,23.84
2023-05-20T06:18:31.596Z,23.83
2023-05-20T06:19:31.664Z,23.83
2023-05-20T06:20:31.667Z,23.83
2023-05-20T06:21:31.696Z,23.83
2023-05-20T06:22:31.722Z,23.84
2023-05-20T06:23:31.790Z,23.84
2023-05-20T06:24:31.805Z,23.84
2023-05-20T06:25:32.027Z,23.84
2023-05-20T06:26:31.895Z,23.84
2023-05-20T06:27:31.947Z,23.84
2023-05-20T06:28:31.982Z,23.84
2023-05-20T06:29:32.027Z,23.84
2023-05-20T06:30:32.076Z,23.84
2023-05-20T06:31:32.220Z,23.84
2023-05-20T06:32:32.174Z,23.85
2023-05-20T06:33:32.168Z,23.85
2023-05-20T06:34:32.227Z,23.85
2023-05-20T06:35:32.432Z,23.85
2023-05-20T06:36:33.775Z,23.86
2023-05-20T06:37:32.361Z,23.86
2023-05-20T06:38:32.395Z,23.86
2023-05-20T06:39:32.417Z,23.87
2023-05-20T06:40:32.447Z,23.87
2023-05-20T06:41:32.511Z,23.87
2023-05-20T06:42:32.557Z,23.87
2023-05-20T06:43:32.562Z,23.87
2023-05-20T06:44:32.622Z,23.88
2023-05-20T06:45:32.839Z,23.88
2023-05-20T06:46:32.745Z,23.88
2023-05-20T06:47:32.776Z,23.88
2023-05-20T06:48:32.776Z,23.89
2023-05-20T06:49:32.795Z,23.89
2023-05-20T06:50:32.843Z,23.89
2023-05-20T06:51:32.917Z,23.90
2023-05-20T06:52:32.960Z,23.90
2023-05-20T06:53:32.977Z,23.90
2023-05-20T06:54:32.997Z,23.90
2023-05-20T06:55:33.359Z,23.91
2023-05-20T06:56:33.030Z,23.92
2023-05-20T06:57:33.054Z,23.92
2023-05-20T06:58:33.115Z,23.92
2023-05-20T06:59:33.112Z,23.93
2023-05-20T07:00:33.187Z,23.93
2023-05-20T07:01:33.210Z,23.93
2023-05-20T07:02:33.265Z,23.94
2023-05-20T07:03:33.245Z,23.94
2023-05-20T07:04:33.276Z,23.95
2023-05-20T07:05:33.534Z,23.95
2023-05-20T07:06:33.373Z,23.96
2023-05-20T07:07:33.379Z,23.96
2023-05-20T07:08:33.395Z,23.96
2023-05-20T07:09:33.460Z,23.97
2023-05-20T07:10:33.558Z,23.97
2023-05-20T07:11:33.499Z,23.98
2023-05-20T07:12:36.074Z,23.98
2023-05-20T07:13:33.547Z,23.99
2023-05-20T07:14:34.052Z,24.00
2023-05-20T07:15:33.725Z,24.01
2023-05-20T07:16:33.614Z,24.00
2023-05-20T07:17:33.525Z,24.01
2023-05-20T07:18:33.483Z,24.01
2023-05-20T07:19:33.545Z,24.02
2023-05-20T07:20:33.459Z,24.02
2023-05-20T07:21:33.521Z,24.02
2023-05-20T07:22:33.493Z,24.02
2023-05-20T07:23:33.475Z,24.02
2023-05-20T07:24:33.482Z,24.03
2023-05-20T07:25:33.760Z,24.03
2023-05-20T07:26:33.457Z,24.04
2023-05-20T07:27:33.441Z,24.04
2023-05-20T07:28:33.422Z,24.05
2023-05-20T07:29:33.434Z,24.05
2023-05-20T07:30:33.431Z,24.04
2023-05-20T07:31:33.429Z,24.06
2023-05-20T07:32:33.445Z,24.06
2023-05-20T07:33:33.372Z,24.07
2023-05-20T07:34:33.389Z,24.06
2023-05-20T07:35:33.680Z,24.07
2023-05-20T07:36:33.372Z,24.08
2023-05-20T07:37:33.334Z,24.08
2023-05-20T07:38:33.332Z,24.09
2023-05-20T07:39:33.340Z,24.09
2023-05-20T07:40:33.427Z,24.09
2023-05-20T07:41:33.325Z,24.10
2023-05-20T07:42:33.321Z,24.10
2023-05-20T07:43:33.305Z,24.10
2023-05-20T07:44:33.297Z,24.11
2023-05-20T07:45:33.456Z,24.11
2023-05-20T07:46:33.401Z,24.11
2023-05-20T07:47:33.274Z,24.11
2023-05-20T07:48:33.288Z,24.13
2023-05-20T07:49:33.276Z,24.13
2023-05-20T07:50:33.296Z,24.14
2023-05-20T07:51:33.294Z,24.15
2023-05-20T07:52:44.177Z,24.14
2023-05-20T07:53:34.244Z,24.14
2023-05-20T07:54:33.234Z,24.15
2023-05-20T07:55:33.432Z,24.15
2023-05-20T07:56:33.301Z,24.15
2023-05-20T07:57:33.201Z,24.15
2023-05-20T07:58:33.234Z,24.16
2023-05-20T07:59:33.220Z,24.16
2023-05-20T08:00:33.223Z,24.16
2023-05-20T08:01:33.220Z,24.17
2023-05-20T08:02:33.349Z,24.17
2023-05-20T08:03:33.403Z,24.17
2023-05-20T08:04:33.471Z,24.18
2023-05-20T08:05:33.704Z,24.18
2023-05-20T08:06:33.533Z,24.19
2023-05-20T08:07:33.604Z,24.19
2023-05-20T08:08:33.661Z,24.19
2023-05-20T08:09:33.718Z,24.19
2023-05-20T08:10:33.796Z,24.19
2023-05-20T08:11:33.851Z,24.19
2023-05-20T08:12:33.935Z,24.20
2023-05-20T08:13:34.004Z,24.20
2023-05-20T08:14:34.017Z,24.19
2023-05-20T08:15:34.247Z,24.20
2023-05-20T08:16:34.176Z,24.20
2023-05-20T08:17:34.254Z,24.20
2023-05-20T08:18:34.269Z,24.19
2023-05-20T08:19:34.344Z,24.21
2023-05-20T08:20:34.356Z,24.21
2023-05-20T08:21:34.372Z,24.21
2023-05-20T08:22:34.395Z,24.22
2023-05-20T08:23:37.959Z,24.22
2023-05-20T08:24:35.384Z,24.22
2023-05-20T08:25:34.647Z,24.23
2023-05-20T08:26:34.377Z,24.23
2023-05-20T08:27:34.393Z,24.22
2023-05-20T08:28:34.394Z,24.23
2023-05-20T08:29:34.361Z,24.23
2023-05-20T08:30:34.353Z,24.24
2023-05-20T08:31:34.420Z,24.26
2023-05-20T08:32:34.383Z,24.25
2023-05-20T08:33:34.318Z,24.26
2023-05-20T08:34:34.334Z,24.26
2023-05-20T08:35:34.466Z,24.27
2023-05-20T08:36:34.296Z,24.26
2023-05-20T08:37:34.300Z,24.27
2023-05-20T08:38:34.266Z,24.27
2023-05-20T08:39:34.293Z,24.28
2023-05-20T08:40:34.279Z,24.29
2023-05-20T08:41:34.275Z,24.30
2023-05-20T08:42:34.265Z,24.31
2023-05-20T08:43:34.262Z,24.34
2023-05-20T08:44:34.218Z,24.36
2023-05-20T08:45:34.416Z,24.36
2023-05-20T08:46:34.298Z,24.38
2023-05-20T08:47:34.324Z,24.38
2023-05-20T08:48:34.394Z,24.39
2023-05-20T08:49:34.437Z,24.38
2023-05-20T08:50:34.480Z,24.39
2023-05-20T08:51:34.554Z,24.40
2023-05-20T08:52:34.596Z,24.40
2023-05-20T08:53:34.678Z,24.40
2023-05-20T08:54:34.703Z,24.41
2023-05-20T08:55:34.940Z,24.42
2023-05-20T08:56:34.800Z,24.42
2023-05-20T08:57:34.862Z,24.43
2023-05-20T08:58:34.896Z,24.44
2023-05-20T08:59:34.951Z,24.45
2023-05-20T09:00:34.986Z,24.45
2023-05-20T09:01:35.071Z,24.47
2023-05-20T09:02:35.139Z,24.49
2023-05-20T09:03:35.139Z,24.50
2023-05-20T09:04:35.256Z,24.51
2023-05-20T09:05:35.503Z,24.52
2023-05-20T09:06:35.296Z,24.51
2023-05-20T09:07:35.317Z,24.52
2023-05-20T09:08:35.383Z,24.52
2023-05-20T09:09:35.429Z,24.53
2023-05-20T09:10:35.470Z,24.55
2023-05-20T09:11:35.532Z,24.54
2023-05-20T09:12:35.579Z,24.53
2023-05-20T09:13:35.622Z,24.52
2023-05-20T09:14:35.657Z,24.52
2023-05-20T09:15:35.941Z,24.51
2023-05-20T09:16:35.860Z,24.51
2023-05-20T09:17:35.844Z,24.51
2023-05-20T09:18:35.839Z,24.50
2023-05-20T09:19:36.053Z,24.52
2023-05-20T09:20:35.942Z,24.53
2023-05-20T09:21:36.015Z,24.53
2023-05-20T09:22:36.018Z,24.54
2023-05-20T09:23:36.068Z,24.55
2023-05-20T09:24:36.082Z,24.54
2023-05-20T09:25:36.269Z,24.55
2023-05-20T09:26:36.197Z,24.56
2023-05-20T09:27:36.183Z,24.57
2023-05-20T09:28:36.172Z,24.58
2023-05-20T09:29:36.182Z,24.60
2023-05-20T09:30:36.216Z,24.60
2023-05-20T09:31:36.228Z,24.60
2023-05-20T09:32:36.263Z,24.59
2023-05-20T09:33:36.242Z,24.60
2023-05-20T09:34:36.219Z,24.61
2023-05-20T09:35:36.324Z,24.63
2023-05-20T09:36:36.298Z,24.66
2023-05-20T09:37:36.298Z,24.67
2023-05-20T09:38:36.318Z,24.67
2023-05-20T09:39:36.330Z,24.69
2023-05-20T09:40:36.310Z,24.70
2023-05-20T09:41:36.353Z,24.72
2023-05-20T09:42:36.344Z,24.73
2023-05-20T09:43:36.343Z,24.75
2023-05-20T09:44:36.374Z,24.76
2023-05-20T09:45:36.707Z,24.78
2023-05-20T09:46:36.492Z,24.79
2023-05-20T09:47:36.470Z,24.81
2023-05-20T09:48:36.484Z,24.81
2023-05-20T09:49:36.513Z,24.78
2023-05-20T09:50:36.550Z,24.76
2023-05-20T09:51:36.560Z,24.75
2023-05-20T09:52:36.609Z,24.75
2023-05-20T09:53:36.615Z,24.76
2023-05-20T09:54:36.600Z,24.76
2023-05-20T09:55:36.822Z,24.77
2023-05-20T09:56:36.656Z,24.78
2023-05-20T09:57:36.632Z,24.79
2023-05-20T09:58:36.655Z,24.80
2023-05-20T09:59:36.658Z,24.80
2023-05-20T10:00:36.625Z,24.81
2023-05-20T10:01:36.671Z,24.82
2023-05-20T10:02:36.724Z,24.83
2023-05-20T10:03:36.708Z,24.85
2023-05-20T10:04:36.595Z,24.85
2023-05-20T10:05:36.783Z,24.85
2023-05-20T10:06:36.616Z,24.87
2023-05-20T10:07:42.276Z,24.89
2023-05-20T10:08:37.604Z,24.90
2023-05-20T10:09:36.606Z,24.92
2023-05-20T10:10:36.572Z,24.92
2023-05-20T10:11:36.564Z,24.91
2023-05-20T10:12:36.589Z,24.89
2023-05-20T10:13:36.549Z,24.87
2023-05-20T10:14:36.566Z,24.88
2023-05-20T10:15:36.829Z,24.87
2023-05-20T10:16:36.562Z,24.87
2023-05-20T10:17:36.585Z,24.87
2023-05-20T10:18:36.572Z,24.87
2023-05-20T10:19:36.506Z,24.88
2023-05-20T10:20:36.518Z,24.89
2023-05-20T10:21:36.500Z,24.89
2023-05-20T10:22:36.537Z,24.89
2023-05-20T10:23:36.490Z,24.88
2023-05-20T10:24:36.493Z,24.89
2023-05-20T10:25:36.721Z,24.89
2023-05-20T10:26:36.483Z,24.89
2023-05-20T10:27:36.469Z,24.89
2023-05-20T10:28:36.472Z,24.90
2023-05-20T10:29:36.454Z,24.91
2023-05-20T10:30:36.633Z,24.91
2023-05-20T10:31:36.421Z,24.91
2023-05-20T10:32:36.534Z,24.91
2023-05-20T10:33:36.485Z,24.91
2023-05-20T10:34:36.525Z,24.92
2023-05-20T10:35:36.533Z,24.92
2023-05-20T10:36:36.598Z,24.93
2023-05-20T10:37:36.595Z,24.93
2023-05-20T10:38:36.615Z,24.94
2023-05-20T10:39:36.640Z,24.94
2023-05-20T10:40:36.826Z,24.95
2023-05-20T10:41:36.678Z,24.96
2023-05-20T10:42:36.678Z,24.97
2023-05-20T10:43:36.676Z,24.99
2023-05-20T10:44:36.674Z,24.99
2023-05-20T10:45:36.691Z,24.99
2023-05-20T10:46:53.843Z,25.00
2023-05-20T10:47:37.920Z,25.01
2023-05-20T10:48:36.743Z,25.04
2023-05-20T10:49:36.706Z,25.04
2023-05-20T10:50:36.821Z,25.05
2023-05-20T10:51:36.692Z,25.05
2023-05-20T10:52:36.708Z,25.05
2023-05-20T10:53:36.657Z,25.06
2023-05-20T10:54:36.663Z,25.06
2023-05-20T10:55:36.672Z,25.07
2023-05-20T10:56:36.644Z,25.07
2023-05-20T10:57:36.651Z,25.08
2023-05-20T10:58:36.626Z,25.08
2023-05-20T10:59:36.605Z,25.09
2023-05-20T11:00:36.971Z,25.08
2023-05-20T11:01:36.685Z,25.07
2023-05-20T11:02:36.687Z,25.07
2023-05-20T11:03:36.759Z,25.07
2023-05-20T11:04:36.589Z,25.07
2023-05-20T11:05:36.616Z,25.07
2023-05-20T11:06:36.661Z,25.07
2023-05-20T11:07:36.656Z,25.07
2023-05-20T11:08:36.681Z,25.08
2023-05-20T11:09:36.775Z,25.09
2023-05-20T11:10:36.837Z,25.09
2023-05-20T11:11:36.913Z,25.09
2023-05-20T11:12:37.009Z,25.09
2023-05-20T11:13:37.012Z,25.09
2023-05-20T11:14:37.057Z,25.09
2023-05-20T11:15:37.172Z,25.08
2023-05-20T11:16:37.231Z,25.08
2023-05-20T11:17:37.354Z,25.07
2023-05-20T11:18:37.326Z,25.07
2023-05-20T11:19:37.411Z,25.08
2023-05-20T11:20:37.464Z,25.09
2023-05-20T11:21:37.535Z,25.09
2023-05-20T11:22:37.590Z,25.10
2023-05-20T11:23:39.867Z,25.10
2023-05-20T11:24:37.622Z,25.10
2023-05-20T11:25:37.642Z,25.09
2023-05-20T11:26:37.616Z,25.09
2023-05-20T11:27:37.629Z,25.08
2023-05-20T11:28:37.595Z,25.08
2023-05-20T11:29:37.590Z,25.09
2023-05-20T11:30:37.707Z,25.09
2023-05-20T11:31:37.683Z,25.08
2023-05-20T11:32:37.740Z,25.07
2023-05-20T11:33:37.587Z,25.07
2023-05-20T11:34:37.588Z,25.08
2023-05-20T11:35:37.555Z,25.07
2023-05-20T11:36:37.535Z,25.07
2023-05-20T11:37:37.521Z,25.06
2023-05-20T11:38:37.513Z,25.06
2023-05-20T11:39:37.545Z,25.05
2023-05-20T11:40:49.902Z,25.06
2023-05-20T11:41:38.539Z,25.05
2023-05-20T11:42:37.500Z,25.05
2023-05-20T11:43:37.510Z,25.05
2023-05-20T11:44:37.487Z,25.04
2023-05-20T11:45:37.448Z,25.05
2023-05-20T11:46:37.627Z,25.04
2023-05-20T11:47:37.497Z,25.05
2023-05-20T11:48:37.452Z,25.06
2023-05-20T11:49:37.458Z,25.05
2023-05-20T11:50:37.440Z,25.04
2023-05-20T11:51:37.414Z,25.04
2023-05-20T11:52:37.430Z,25.03
2023-05-20T11:53:37.412Z,25.03
2023-05-20T11:54:37.435Z,25.03
2023-05-20T11:55:37.463Z,25.02
2023-05-20T11:56:37.468Z,25.02
2023-05-20T11:57:37.455Z,25.01
2023-05-20T11:58:37.512Z,25.00
2023-05-20T11:59:37.569Z,25.02
2023-05-20T12:00:50.178Z,25.01
2023-05-20T12:01:38.609Z,25.00
2023-05-20T12:02:37.660Z,25.02
2023-05-20T12:03:37.824Z,25.02
2023-05-20T12:04:37.588Z,24.99
2023-05-20T12:05:37.570Z,24.99
2023-05-20T12:06:37.560Z,24.98
2023-05-20T12:07:37.623Z,24.98
2023-05-20T12:08:37.556Z,24.99
2023-05-20T12:09:37.564Z,24.99
2023-05-20T12:10:37.687Z,25.00
2023-05-20T12:11:37.612Z,24.99
2023-05-20T12:12:37.532Z,25.00
2023-05-20T12:13:37.532Z,25.00
2023-05-20T12:14:37.549Z,24.99
2023-05-20T12:15:37.557Z,24.99
2023-05-20T12:16:37.724Z,25.00
2023-05-20T12:17:37.674Z,25.00
2023-05-20T12:18:37.656Z,24.99
2023-05-20T12:19:39.041Z,24.99
2023-05-20T12:20:38.103Z,24.98
2023-05-20T12:21:37.651Z,24.96
2023-05-20T12:22:37.632Z,24.96
2023-05-20T12:23:37.655Z,24.96
2023-05-20T12:24:37.615Z,24.96
2023-05-20T12:25:37.653Z,24.96
2023-05-20T12:26:37.613Z,24.97
2023-05-20T12:27:37.621Z,24.97
2023-05-20T12:28:37.609Z,24.98
2023-05-20T12:29:37.592Z,24.97
2023-05-20T12:30:37.688Z,24.96
2023-05-20T12:31:37.628Z,24.96
2023-05-20T12:32:37.640Z,24.95
2023-05-20T12:33:37.584Z,24.94
2023-05-20T12:34:37.563Z,24.94
2023-05-20T12:35:37.563Z,24.93
2023-05-20T12:36:37.552Z,24.93
2023-05-20T12:37:37.542Z,24.92
2023-05-20T12:38:37.544Z,24.92
2023-05-20T12:39:37.506Z,24.92
2023-05-20T12:40:38.084Z,24.92
2023-05-20T12:41:37.520Z,24.91
2023-05-20T12:42:37.497Z,24.91
2023-05-20T12:43:37.641Z,24.92
2023-05-20T12:44:37.507Z,24.91
2023-05-20T12:45:37.490Z,24.91
2023-05-20T12:46:37.529Z,24.91
2023-05-20T12:47:37.501Z,24.90
2023-05-20T12:48:37.520Z,24.91
2023-05-20T12:49:37.436Z,24.91
2023-05-20T12:50:37.635Z,24.90
2023-05-20T12:51:37.461Z,24.91
2023-05-20T12:52:37.451Z,24.90